createdAt,value
2023-11-24T00:01:05.906Z,0.00
2023-11-24T00:03:33.343Z,0.00
2023-11-24T00:05:59.912Z,0.00
2023-11-24T00:08:26.452Z,0.00
2023-11-24T00:10:53.073Z,0.00
2023-11-24T00:13:20.127Z,0.00
2023-11-24T00:15:48.661Z,0.00
2023-11-24T00:18:15.719Z,0.00
2023-11-24T00:20:42.551Z,0.00
2023-11-24T00:23:09.365Z,0.00
2023-11-24T00:25:35.893Z,0.00
2023-11-24T00:28:02.514Z,0.00
2023-11-24T00:30:29.102Z,0.00
2023-11-24T00:32:55.858Z,0.00
2023-11-24T00:35:22.522Z,0.00
2023-11-24T00:37:49.705Z,0.00
2023-11-24T00:40:19.644Z,0.00
2023-11-24T00:42:46.384Z,0.00
2023-11-24T00:45:13.571Z,0.00
2023-11-24T00:47:40.411Z,0.00
2023-11-24T00:50:07.388Z,0.00
2023-11-24T00:52:34.094Z,0.00
2023-11-24T00:55:00.708Z,0.00
2023-11-24T00:57:27.265Z,0.00
2023-11-24T00:59:53.834Z,0.00
2023-11-24T01:02:20.474Z,0.00
2023-11-24T01:04:49.144Z,0.00
2023-11-24T01:07:15.983Z,0.00
2023-11-24T01:09:42.797Z,0.00
2023-11-24T01:12:09.394Z,0.00
2023-11-24T01:14:36.132Z,0.00
2023-11-24T01:17:02.614Z,0.00
2023-11-24T01:19:29.104Z,0.00
2023-11-24T01:21:55.966Z,0.00
2023-11-24T01:24:22.476Z,0.00
2023-11-24T01:26:49.795Z,0.00
2023-11-24T01:29:16.443Z,0.00
2023-11-24T01:31:42.886Z,0.00
2023-11-24T01:34:09.663Z,0.00
2023-11-24T01:36:36.425Z,0.00
2023-11-24T01:39:05.873Z,0.00
2023-11-24T01:41:33.048Z,0.00
2023-11-24T01:44:04.087Z,0.00
2023-11-24T01:46:31.925Z,0.00
2023-11-24T01:48:59.121Z,1.00
2023-11-24T01:51:26.241Z,0.00
2023-11-24T01:53:53.900Z,0.00
2023-11-24T01:56:21.323Z,0.00
2023-11-24T01:58:48.732Z,0.00
2023-11-24T02:01:15.250Z,0.00
2023-11-24T02:03:41.936Z,0.00
2023-11-24T02:06:09.564Z,0.00
2023-11-24T02:08:36.226Z,0.00
2023-11-24T02:11:03.529Z,0.00
2023-11-24T02:13:30.136Z,0.00
2023-11-24T02:15:57.841Z,0.00
2023-11-24T02:18:24.898Z,0.00
2023-11-24T02:20:51.562Z,0.00
2023-11-24T02:23:18.349Z,0.00
2023-11-24T02:25:44.936Z,1.00
2023-11-24T02:28:11.400Z,1.00
2023-11-24T02:30:37.972Z,1.50
2023-11-24T02:33:05.210Z,1.00
2023-11-24T02:35:33.245Z,2.00
2023-11-24T02:37:59.924Z,1.00
2023-11-24T02:40:26.389Z,1.00
2023-11-24T02:42:52.893Z,1.00
2023-11-24T02:45:19.402Z,1.00
2023-11-24T02:47:46.048Z,1.25
2023-11-24T02:50:13.676Z,0.25
2023-11-24T02:52:40.300Z,0.00
2023-11-24T02:55:07.669Z,0.00
2023-11-24T02:57:34.370Z,0.00
2023-11-24T03:00:00.956Z,0.00
2023-11-24T03:02:27.512Z,0.00
2023-11-24T03:04:54.434Z,0.00
2023-11-24T03:07:21.456Z,0.00
2023-11-24T03:09:47.989Z,0.00
2023-11-24T03:12:14.479Z,0.50
2023-11-24T03:14:43.919Z,0.00
2023-11-24T03:17:11.679Z,0.00
2023-11-24T03:19:38.200Z,0.00
2023-11-24T03:22:04.799Z,0.00
2023-11-24T03:24:31.398Z,1.00
2023-11-24T03:26:58.208Z,0.50
2023-11-24T03:29:24.802Z,1.50
2023-11-24T03:31:52.397Z,1.75
2023-11-24T03:34:19.076Z,1.00
2023-11-24T03:36:45.742Z,1.00
2023-11-24T03:39:15.563Z,4.00
2023-11-24T03:41:42.455Z,2.00
2023-11-24T03:44:09.132Z,3.50
2023-11-24T03:46:35.612Z,6.25
2023-11-24T03:49:02.254Z,10.50
2023-11-24T03:51:28.866Z,8.00
2023-11-24T03:53:55.396Z,9.50
2023-11-24T03:56:21.914Z,8.00
2023-11-24T03:58:48.497Z,4.75
2023-11-24T04:01:15.593Z,5.00
2023-11-24T04:03:47.805Z,7.00
2023-11-24T04:06:15.098Z,8.75
2023-11-24T04:08:41.850Z,12.33
2023-11-24T04:11:08.391Z,13.67
2023-11-24T04:13:34.899Z,16.33
2023-11-24T04:16:01.523Z,14.33
2023-11-24T04:18:31.187Z,15.00
2023-11-24T04:20:57.704Z,13.33
2023-11-24T04:23:24.183Z,7.33
2023-11-24T04:25:50.767Z,9.50
2023-11-24T04:28:17.326Z,5.50
2023-11-24T04:30:44.056Z,4.75
2023-11-24T04:33:10.662Z,3.50
2023-11-24T04:35:37.161Z,5.00
2023-11-24T04:38:03.697Z,0.75
2023-11-24T04:40:30.174Z,4.00
2023-11-24T04:42:56.698Z,1.25
2023-11-24T04:45:23.370Z,1.00
2023-11-24T04:47:49.828Z,0.50
2023-11-24T04:50:17.519Z,0.50
2023-11-24T04:52:44.211Z,2.50
2023-11-24T04:55:10.809Z,7.00
2023-11-24T04:57:37.376Z,8.00
2023-11-24T05:00:08.199Z,19.67
2023-11-24T05:02:34.998Z,19.33
2023-11-24T05:05:01.551Z,26.33
2023-11-24T05:07:27.995Z,13.33
2023-11-24T05:09:55.279Z,13.67
2023-11-24T05:12:21.794Z,11.00
2023-11-24T05:14:48.252Z,9.33
2023-11-24T05:17:14.831Z,6.00
2023-11-24T05:19:41.351Z,8.75
2023-11-24T05:22:07.866Z,10.00
2023-11-24T05:24:34.826Z,7.50
2023-11-24T05:27:01.395Z,8.00
2023-11-24T05:29:27.962Z,7.50
2023-11-24T05:31:54.474Z,2.00
2023-11-24T05:34:21.393Z,11.67
2023-11-24T05:36:48.148Z,2.25
2023-11-24T05:39:16.141Z,2.00
2023-11-24T05:41:44.008Z,3.00
2023-11-24T05:44:10.685Z,3.50
2023-11-24T05:46:37.279Z,3.00
2023-11-24T05:49:05.256Z,4.00
2023-11-24T05:51:31.907Z,6.75
2023-11-24T05:53:58.473Z,6.25
2023-11-24T05:56:25.269Z,4.00
2023-11-24T05:58:54.832Z,7.50
2023-11-24T06:01:24.308Z,3.00
2023-11-24T06:03:51.746Z,8.33
2023-11-24T06:06:19.327Z,7.00
2023-11-24T06:08:45.860Z,6.00
2023-11-24T06:11:12.446Z,5.00
2023-11-24T06:13:38.981Z,8.67
2023-11-24T06:16:06.197Z,10.00
2023-11-24T06:18:32.947Z,1.00
2023-11-24T06:20:59.443Z,7.00
2023-11-24T06:23:26.021Z,8.33
2023-11-24T06:25:53.306Z,8.00
2023-11-24T06:28:19.971Z,8.00
2023-11-24T06:30:46.462Z,8.67
2023-11-24T06:33:13.200Z,7.00
2023-11-24T06:35:39.698Z,17.33
2023-11-24T06:38:06.260Z,21.00
2023-11-24T06:40:32.812Z,9.33
2023-11-24T06:43:00.259Z,9.75
2023-11-24T06:45:26.868Z,14.33
2023-11-24T06:47:53.440Z,22.33
2023-11-24T06:50:20.001Z,18.00
2023-11-24T06:52:46.460Z,18.00
2023-11-24T06:55:13.277Z,18.67
2023-11-24T06:57:40.164Z,27.00
2023-11-24T07:00:07.395Z,14.00
2023-11-24T07:02:36.988Z,17.25
2023-11-24T07:05:04.312Z,11.00
2023-11-24T07:07:30.785Z,18.50
2023-11-24T07:09:57.366Z,8.00
2023-11-24T07:12:27.073Z,20.00
2023-11-24T07:14:53.775Z,9.00
2023-11-24T07:17:20.282Z,8.50
2023-11-24T07:19:46.830Z,4.00
2023-11-24T07:22:13.468Z,9.00
2023-11-24T07:24:40.186Z,25.33
2023-11-24T07:27:07.021Z,8.25
2023-11-24T07:29:36.820Z,12.25
2023-11-24T07:32:03.978Z,15.67
2023-11-24T07:34:34.012Z,10.25
2023-11-24T07:39:47.578Z,14.75
2023-11-24T07:42:14.044Z,12.25
2023-11-24T07:44:40.823Z,9.25
2023-11-24T07:47:07.294Z,9.00
2023-11-24T07:49:34.864Z,6.00
2023-11-24T07:52:02.406Z,13.50
2023-11-24T07:54:29.198Z,8.25
2023-11-24T07:56:57.942Z,5.25
2023-11-24T07:59:27.439Z,4.00
2023-11-24T08:01:54.026Z,5.00
2023-11-24T08:04:20.623Z,5.50
2023-11-24T08:06:47.103Z,24.33
2023-11-24T08:09:13.872Z,5.75
2023-11-24T08:11:40.407Z,12.25
2023-11-24T08:14:06.886Z,0.50
2023-11-24T08:16:33.491Z,8.50
2023-11-24T08:19:00.070Z,6.00
2023-11-24T08:21:26.617Z,5.25
2023-11-24T08:23:53.100Z,3.75
2023-11-24T08:26:20.203Z,4.25
2023-11-24T08:28:46.984Z,7.75
2023-11-24T08:31:17.675Z,10.00
2023-11-24T08:33:44.682Z,6.00
2023-11-24T08:36:11.667Z,7.75
2023-11-24T08:38:38.370Z,6.75
2023-11-24T08:41:26.085Z,4.00
2023-11-24T08:44:01.209Z,3.25
2023-11-24T08:46:27.777Z,6.00
2023-11-24T08:48:55.959Z,6.00
2023-11-24T08:51:22.874Z,5.00
2023-11-24T08:53:49.460Z,4.00
2023-11-24T08:56:16.058Z,13.75
2023-11-24T08:58:42.560Z,15.50
2023-11-24T09:01:09.084Z,5.00
2023-11-24T09:03:35.754Z,6.25
2023-11-24T09:06:02.445Z,11.25
2023-11-24T09:08:28.986Z,7.25
2023-11-24T09:10:55.528Z,9.00
2023-11-24T09:13:22.042Z,7.25
2023-11-24T09:15:50.887Z,6.00
2023-11-24T09:18:17.457Z,5.50
2023-11-24T09:20:47.504Z,6.25
2023-11-24T09:23:14.162Z,10.50
2023-11-24T09:25:41.490Z,15.67
2023-11-24T09:28:08.067Z,6.00
2023-11-24T09:30:34.718Z,13.00
2023-11-24T09:33:01.257Z,10.75
2023-11-24T09:35:27.760Z,9.00
2023-11-24T09:37:54.280Z,10.50
2023-11-24T09:40:24.204Z,12.25
2023-11-24T09:42:51.702Z,8.25
2023-11-24T09:45:20.642Z,11.50
2023-11-24T09:47:51.331Z,78.50
2023-11-24T09:50:20.171Z,22.67
2023-11-24T09:52:49.196Z,46.75
2023-11-24T09:55:15.794Z,19.75
2023-11-24T09:57:42.516Z,10.50
2023-11-24T10:00:12.442Z,21.50
2023-11-24T10:02:40.542Z,10.00
2023-11-24T10:05:08.354Z,17.75
2023-11-24T10:07:38.067Z,21.25
2023-11-24T10:10:06.481Z,13.75
2023-11-24T10:12:33.846Z,44.00
2023-11-24T10:15:00.441Z,19.00
2023-11-24T10:17:26.921Z,11.75
2023-11-24T10:19:53.480Z,10.00
2023-11-24T10:22:25.078Z,15.00
2023-11-24T10:24:52.602Z,13.25
2023-11-24T10:27:22.301Z,11.25
2023-11-24T10:29:52.476Z,9.75
2023-11-24T10:32:20.332Z,9.00
2023-11-24T10:34:50.076Z,13.75
2023-11-24T10:37:22.105Z,14.75
2023-11-24T10:39:52.749Z,16.25
2023-11-24T10:42:20.473Z,19.00
2023-11-24T10:44:51.182Z,14.75
2023-11-24T10:47:21.727Z,10.25
2023-11-24T10:50:08.517Z,5.00
2023-11-24T10:52:42.713Z,10.75
2023-11-24T10:55:15.186Z,8.50
2023-11-24T10:57:45.039Z,9.00
2023-11-24T11:00:15.633Z,19.25
2023-11-24T11:02:43.030Z,2.75
2023-11-24T11:05:20.198Z,5.25
2023-11-24T11:07:56.009Z,13.00
2023-11-24T11:10:34.589Z,6.25
2023-11-24T11:13:01.585Z,14.75
2023-11-24T11:15:31.131Z,11.25
2023-11-24T11:18:10.947Z,6.75
2023-11-24T11:20:42.040Z,8.75
2023-11-24T11:23:16.499Z,5.25
2023-11-24T11:25:44.524Z,10.00
2023-11-24T11:28:20.772Z,6.50
2023-11-24T11:30:47.863Z,2.50
2023-11-24T11:33:14.488Z,9.00
2023-11-24T11:35:43.929Z,23.67
2023-11-24T11:38:13.191Z,13.50
2023-11-24T11:40:39.879Z,17.75
2023-11-24T11:43:10.533Z,19.00
2023-11-24T11:45:50.597Z,10.50
2023-11-24T11:48:18.132Z,11.25
2023-11-24T11:50:58.086Z,15.25
2023-11-24T11:53:26.976Z,3.75
2023-11-24T11:56:00.397Z,11.00
2023-11-24T11:58:29.155Z,8.50
2023-11-24T12:00:55.894Z,11.25
2023-11-24T12:03:24.245Z,5.50
2023-11-24T12:05:53.758Z,4.50
2023-11-24T12:08:22.519Z,6.00
2023-11-24T12:10:49.152Z,10.75
2023-11-24T12:13:15.831Z,10.50
2023-11-24T12:15:45.739Z,13.50
2023-11-24T12:18:21.111Z,5.00
2023-11-24T12:20:49.236Z,9.00
2023-11-24T12:23:16.292Z,51.25
2023-11-24T12:25:44.478Z,9.75
2023-11-24T12:28:11.892Z,24.67
2023-11-24T12:30:42.999Z,40.25
2023-11-24T12:33:15.849Z,14.25
2023-11-24T12:35:52.365Z,25.67
2023-11-24T12:38:20.567Z,30.00
2023-11-24T12:40:48.016Z,30.00
2023-11-24T12:43:14.690Z,29.33
2023-11-24T12:45:44.571Z,35.00
2023-11-24T12:48:24.876Z,32.33
2023-11-24T12:50:54.324Z,28.33
2023-11-24T12:53:21.469Z,19.25
2023-11-24T12:55:48.372Z,25.67
2023-11-24T12:58:14.993Z,25.33
2023-11-24T13:00:43.557Z,9.50
2023-11-24T13:03:11.381Z,15.25
2023-11-24T13:05:39.712Z,18.75
2023-11-24T13:08:06.588Z,21.75
2023-11-24T13:10:34.513Z,14.25
2023-11-24T13:13:02.192Z,19.25
2023-11-24T13:15:29.459Z,6.50
2023-11-24T13:17:57.168Z,2.00
2023-11-24T13:20:30.011Z,9.75
2023-11-24T13:22:57.183Z,4.50
2023-11-24T13:25:28.137Z,5.50
2023-11-24T13:27:55.354Z,3.25
2023-11-24T13:30:26.820Z,6.00
2023-11-24T13:32:53.818Z,13.00
2023-11-24T13:35:21.643Z,11.00
2023-11-24T13:37:49.078Z,15.75
2023-11-24T13:40:18.545Z,19.25
2023-11-24T13:42:45.521Z,19.75
2023-11-24T13:45:18.183Z,36.75
2023-11-24T13:47:45.820Z,30.33
2023-11-24T13:50:15.218Z,23.67
2023-11-24T13:52:43.449Z,23.00
2023-11-24T13:55:12.598Z,26.33
2023-11-24T13:57:39.669Z,23.33
2023-11-24T14:00:11.938Z,27.67
2023-11-24T14:02:39.257Z,27.67
2023-11-24T14:05:06.790Z,31.00
2023-11-24T14:07:33.341Z,23.67
2023-11-24T14:09:59.937Z,22.00
2023-11-24T14:12:26.657Z,19.33
2023-11-24T14:14:53.826Z,24.00
2023-11-24T14:17:20.509Z,25.67
2023-11-24T14:19:47.090Z,51.75
2023-11-24T14:22:14.898Z,43.25
2023-11-24T14:24:43.734Z,27.33
2023-11-24T14:27:14.132Z,32.00
2023-11-24T14:29:41.367Z,9.00
2023-11-24T14:32:08.915Z,11.50
2023-11-24T14:34:36.112Z,32.00
2023-11-24T14:37:02.983Z,65.25
2023-11-24T14:39:33.513Z,9.00
2023-11-24T14:42:00.330Z,9.00
2023-11-24T14:44:27.259Z,16.33
2023-11-24T14:46:54.646Z,12.00
2023-11-24T14:49:21.458Z,14.00
2023-11-24T14:51:49.796Z,7.33
2023-11-24T14:54:17.595Z,8.00
2023-11-24T14:56:49.664Z,11.75
2023-11-24T14:59:16.583Z,12.67
2023-11-24T15:01:44.551Z,6.75
2023-11-24T15:04:18.762Z,7.50
2023-11-24T15:06:51.747Z,5.50
2023-11-24T15:09:20.120Z,6.50
2023-11-24T15:11:46.981Z,8.00
2023-11-24T15:14:15.130Z,6.50
2023-11-24T15:16:55.972Z,8.00
2023-11-24T15:19:24.111Z,11.25
2023-11-24T15:21:50.705Z,7.50
2023-11-24T15:24:17.283Z,13.00
2023-11-24T15:26:45.339Z,11.25
2023-11-24T15:29:14.386Z,15.00
2023-11-24T15:31:42.799Z,9.75
2023-11-24T15:34:09.509Z,13.33
2023-11-24T15:36:36.123Z,15.00
2023-11-24T15:39:05.395Z,14.33
2023-11-24T15:41:39.099Z,11.67
2023-11-24T15:44:07.991Z,13.67
2023-11-24T15:46:35.301Z,14.00
2023-11-24T15:49:04.767Z,15.33
2023-11-24T15:51:31.758Z,18.33
2023-11-24T15:53:58.294Z,22.50
2023-11-24T15:56:25.456Z,18.33
2023-11-24T15:58:56.450Z,20.00
2023-11-24T16:01:29.358Z,17.00
2023-11-24T16:03:57.379Z,14.67
2023-11-24T16:06:26.326Z,21.00
2023-11-24T16:08:55.959Z,22.75
2023-11-24T16:11:27.532Z,23.00
2023-11-24T16:13:54.984Z,20.33
2023-11-24T16:16:22.529Z,19.00
2023-11-24T16:18:49.222Z,17.00
2023-11-24T16:21:15.776Z,16.00
2023-11-24T16:23:42.620Z,17.75
2023-11-24T16:26:11.602Z,11.33
2023-11-24T16:28:39.316Z,15.00
2023-11-24T16:31:06.855Z,13.00
2023-11-24T16:33:38.656Z,15.00
2023-11-24T16:36:06.130Z,15.00
2023-11-24T16:38:33.451Z,14.67
2023-11-24T16:41:04.851Z,17.50
2023-11-24T16:43:32.276Z,19.75
2023-11-24T16:45:59.433Z,26.00
2023-11-24T16:48:26.083Z,12.50
2023-11-24T16:50:52.668Z,15.00
2023-11-24T16:53:20.421Z,15.25
2023-11-24T16:55:48.524Z,14.50
2023-11-24T16:58:15.219Z,10.67
2023-11-24T17:00:42.870Z,13.00
2023-11-24T17:03:12.104Z,9.33
2023-11-24T17:05:39.529Z,9.33
2023-11-24T17:08:08.082Z,9.00
2023-11-24T17:10:35.562Z,10.00
2023-11-24T17:13:03.276Z,10.00
2023-11-24T17:15:30.059Z,9.00
2023-11-24T17:17:58.332Z,11.00
2023-11-24T17:20:27.284Z,10.50
2023-11-24T17:22:54.618Z,9.25
2023-11-24T17:25:32.185Z,11.50
2023-11-24T17:28:03.691Z,12.33
2023-11-24T17:30:30.380Z,9.00
2023-11-24T17:32:57.163Z,13.75
2023-11-24T17:35:25.057Z,12.00
2023-11-24T17:37:52.506Z,10.00
2023-11-24T17:40:22.981Z,10.67
2023-11-24T17:42:50.399Z,9.33
2023-11-24T17:45:17.348Z,26.50
2023-11-24T17:47:46.476Z,32.75
2023-11-24T17:50:15.188Z,16.50
2023-11-24T17:52:42.054Z,15.00
2023-11-24T17:55:10.533Z,35.25
2023-11-24T17:57:37.545Z,28.25
2023-11-24T18:00:05.083Z,9.00
2023-11-24T18:02:31.688Z,14.50
2023-11-24T18:04:58.281Z,13.75
2023-11-24T18:07:24.943Z,10.75
2023-11-24T18:09:51.719Z,4.00
2023-11-24T18:12:18.478Z,4.00
2023-11-24T18:14:45.045Z,7.50
2023-11-24T18:17:11.850Z,9.00
2023-11-24T18:19:38.468Z,8.33
2023-11-24T18:22:05.224Z,3.33
2023-11-24T18:24:33.520Z,6.00
2023-11-24T18:27:00.215Z,0.67
2023-11-24T18:29:27.392Z,7.00
2023-11-24T18:31:54.073Z,4.00
2023-11-24T18:34:27.895Z,5.33
2023-11-24T18:36:55.093Z,7.00
2023-11-24T18:39:21.820Z,7.67
2023-11-24T18:41:48.426Z,6.00
2023-11-24T18:44:14.963Z,6.67
2023-11-24T18:46:41.538Z,10.00
2023-11-24T18:49:08.151Z,7.00
2023-11-24T18:51:37.048Z,11.33
2023-11-24T18:54:03.910Z,7.67
2023-11-24T18:56:30.539Z,12.67
2023-11-24T18:58:57.118Z,12.33
2023-11-24T19:01:23.982Z,9.00
2023-11-24T19:03:50.585Z,14.00
2023-11-24T19:06:17.140Z,15.00
2023-11-24T19:08:43.690Z,19.00
2023-11-24T19:11:11.685Z,16.50
2023-11-24T19:13:43.141Z,20.00
2023-11-24T19:16:09.778Z,18.00
2023-11-24T19:18:36.400Z,20.00
2023-11-24T19:21:07.423Z,19.00
2023-11-24T19:23:33.954Z,21.25
2023-11-24T19:26:02.696Z,16.00
2023-11-24T19:28:31.490Z,16.25
2023-11-24T19:30:58.148Z,16.00
2023-11-24T19:33:24.680Z,18.50
2023-11-24T19:35:51.258Z,21.50
2023-11-24T19:38:17.863Z,17.00
2023-11-24T19:40:44.506Z,14.00
2023-11-24T19:43:11.042Z,13.50
2023-11-24T19:45:39.279Z,13.50
2023-11-24T19:48:05.988Z,12.50
2023-11-24T19:50:32.532Z,18.50
2023-11-24T19:52:59.625Z,16.00
2023-11-24T19:55:26.271Z,25.50
2023-11-24T19:57:52.898Z,25.50
2023-11-24T20:00:20.350Z,24.75
2023-11-24T20:02:48.426Z,26.25
2023-11-24T20:05:15.063Z,24.00
2023-11-24T20:07:41.636Z,23.00
2023-11-24T20:10:08.559Z,26.75
2023-11-24T20:12:35.118Z,19.00
2023-11-24T20:15:01.776Z,22.00
2023-11-24T20:17:28.367Z,16.00
2023-11-24T20:19:55.000Z,22.00
2023-11-24T20:22:21.659Z,16.00
2023-11-24T20:24:48.366Z,13.00
2023-11-24T20:27:14.924Z,12.00
2023-11-24T20:29:41.582Z,12.33
2023-11-24T20:32:08.134Z,10.00
2023-11-24T20:34:34.769Z,15.33
2023-11-24T20:37:01.499Z,11.33
2023-11-24T20:39:28.164Z,13.50
2023-11-24T20:41:56.063Z,12.67
2023-11-24T20:44:22.622Z,11.33
2023-11-24T20:46:50.699Z,13.50
2023-11-24T20:49:19.095Z,13.00
2023-11-24T20:51:45.639Z,8.33
2023-11-24T20:54:12.233Z,15.67
2023-11-24T20:56:38.754Z,11.33
2023-11-24T20:59:05.395Z,16.33
2023-11-24T21:01:32.102Z,18.00
2023-11-24T21:03:58.890Z,12.67
2023-11-24T21:06:25.509Z,2.00
2023-11-24T21:08:59.580Z,12.00
2023-11-24T21:11:28.679Z,13.00
2023-11-24T21:13:56.500Z,11.33
2023-11-24T21:16:23.610Z,13.00
2023-11-24T21:18:50.188Z,7.67
2023-11-24T21:21:17.287Z,8.33
2023-11-24T21:23:44.045Z,9.67
2023-11-24T21:26:10.753Z,9.67
2023-11-24T21:28:39.418Z,13.33
2023-11-24T21:31:07.367Z,7.00
2023-11-24T21:33:34.029Z,4.00
2023-11-24T21:36:01.695Z,7.67
2023-11-24T21:38:30.185Z,6.00
2023-11-24T21:40:57.239Z,7.00
2023-11-24T21:43:23.896Z,6.33
2023-11-24T21:45:50.644Z,7.67
2023-11-24T21:48:17.694Z,10.00
2023-11-24T21:50:44.396Z,6.33
2023-11-24T21:53:10.951Z,10.67
2023-11-24T21:55:37.604Z,13.00
2023-11-24T21:58:04.805Z,9.33
2023-11-24T22:00:31.533Z,3.00
2023-11-24T22:02:58.122Z,12.50
2023-11-24T22:05:27.093Z,9.00
2023-11-24T22:07:53.895Z,10.00
2023-11-24T22:10:22.707Z,6.00
2023-11-24T22:12:49.405Z,6.00
2023-11-24T22:15:16.051Z,7.00
2023-11-24T22:17:43.797Z,6.33
2023-11-24T22:20:13.631Z,9.33
2023-11-24T22:22:40.539Z,9.00
2023-11-24T22:25:07.775Z,9.00
2023-11-24T22:27:54.200Z,8.33
2023-11-24T22:30:21.318Z,6.67
2023-11-24T22:32:48.050Z,9.00
2023-11-24T22:35:15.166Z,9.00
2023-11-24T22:37:41.743Z,9.00
2023-11-24T22:40:08.736Z,11.33
2023-11-24T22:42:35.610Z,12.00
2023-11-24T22:45:07.332Z,9.00
2023-11-24T22:47:38.833Z,0.00
2023-11-24T22:50:06.809Z,3.00
2023-11-24T22:52:33.735Z,12.00
2023-11-24T22:55:00.529Z,9.67
2023-11-24T22:57:28.319Z,9.00
2023-11-24T22:59:56.888Z,12.67
2023-11-24T23:02:24.393Z,7.67
2023-11-24T23:04:51.367Z,9.00
2023-11-24T23:07:19.462Z,8.33
2023-11-24T23:09:46.623Z,9.33
2023-11-24T23:12:13.629Z,9.33
2023-11-24T23:14:40.262Z,6.00
2023-11-24T23:17:07.398Z,9.33
2023-11-24T23:19:34.155Z,7.00
2023-11-24T23:22:03.086Z,11.33
2023-11-24T23:24:29.625Z,9.00
2023-11-24T23:26:56.206Z,9.33
2023-11-24T23:29:22.864Z,7.00
2023-11-24T23:31:49.546Z,9.00
2023-11-24T23:34:16.649Z,7.67
2023-11-24T23:36:43.674Z,9.00
2023-11-24T23:39:11.310Z,5.33
2023-11-24T23:41:37.894Z,7.00
2023-11-24T23:44:05.585Z,6.67
2023-11-24T23:46:32.335Z,10.00
2023-11-24T23:48:58.966Z,6.67
2023-11-24T23:51:25.990Z,5.33
2023-11-24T23:53:53.189Z,7.00
2023-11-24T23:56:20.441Z,10.00
2023-11-24T23:58:46.996Z,6.00
